createdAt,value
2017-06-08T00:00:52.063Z,99.99
2017-06-08T00:10:52.078Z,99.99
2017-06-08T00:20:52.051Z,99.99
2017-06-08T00:30:52.123Z,99.99
2017-06-08T00:40:52.054Z,99.99
2017-06-08T00:50:52.054Z,99.99
2017-06-08T01:00:52.050Z,99.99
2017-06-08T01:10:52.047Z,99.71
2017-06-08T01:20:52.058Z,99.9
2017-06-08T01:30:52.066Z,99.99
2017-06-08T01:40:52.044Z,99.99
2017-06-08T01:50:52.048Z,99.99
2017-06-08T02:00:52.079Z,99.99
2017-06-08T02:10:52.064Z,99.99
2017-06-08T02:20:52.058Z,99.99
2017-06-08T02:30:52.051Z,99.99
2017-06-08T02:40:52.047Z,99.99
2017-06-08T02:50:52.040Z,99.99
2017-06-08T03:00:52.040Z,99.99
2017-06-08T03:10:52.038Z,99.99
2017-06-08T03:20:52.033Z,99.99
2017-06-08T03:30:52.041Z,99.99
2017-06-08T03:40:52.037Z,99.99
2017-06-08T03:50:52.054Z,99.99
2017-06-08T04:00:52.040Z,99.99
2017-06-08T04:10:52.038Z,99.99
2017-06-08T04:20:52.040Z,99.99
2017-06-08T04:30:52.075Z,99.99
2017-06-08T04:40:52.035Z,99.99
2017-06-08T04:50:52.034Z,99.99
2017-06-08T05:00:52.038Z,99.99
2017-06-08T05:10:52.057Z,99.99
2017-06-08T05:20:52.034Z,99.99
2017-06-08T05:30:52.031Z,99.99
2017-06-08T05:40:52.028Z,99.99
2017-06-08T05:50:52.098Z,99.99
2017-06-08T06:00:52.026Z,99.99
2017-06-08T06:10:52.050Z,99.99
2017-06-08T06:20:52.031Z,99.99
2017-06-08T06:30:52.047Z,99.99
2017-06-08T06:40:52.043Z,99.99
2017-06-08T06:50:52.047Z,99.99
2017-06-08T07:00:52.041Z,99.99
2017-06-08T07:10:52.048Z,99.99
2017-06-08T07:20:52.126Z,99.99
2017-06-08T07:30:52.046Z,99.58
2017-06-08T07:40:52.040Z,95.17
2017-06-08T07:50:52.051Z,94.74
2017-06-08T08:00:52.039Z,94.26
2017-06-08T08:10:52.047Z,91.62
2017-06-08T08:20:52.093Z,90.22
2017-06-08T08:30:52.063Z,84.45
2017-06-08T08:40:52.046Z,73.22
2017-06-08T08:50:52.068Z,66.56
2017-06-08T09:00:52.066Z,61.92
2017-06-08T09:10:52.094Z,62.89
2017-06-08T09:20:52.071Z,64.37
2017-06-08T09:30:52.091Z,61.31
2017-06-08T09:40:52.105Z,61.63
2017-06-08T09:50:52.185Z,63.21
2017-06-08T10:00:52.073Z,62.5
2017-06-08T10:10:52.306Z,60.6
2017-06-08T10:20:52.314Z,61.27
2017-06-08T10:30:52.087Z,61.21
2017-06-08T10:40:52.075Z,60.21
2017-06-08T10:50:52.076Z,60.6
2017-06-08T11:00:52.091Z,61.57
2017-06-08T11:10:52.102Z,63.63
2017-06-08T11:20:52.152Z,63.63
2017-06-08T11:30:52.079Z,64.82
2017-06-08T11:40:52.400Z,65.53
2017-06-08T11:50:52.084Z,63.92
2017-06-08T12:00:59.290Z,62.79
2017-06-08T12:10:52.234Z,61.05
2017-06-08T12:20:52.111Z,60.14
2017-06-08T12:30:52.129Z,60.17
2017-06-08T12:40:52.103Z,57.33
2017-06-08T12:50:52.140Z,55.71
2017-06-08T13:00:52.354Z,57.07
2017-06-08T13:10:52.165Z,56.68
2017-06-08T13:20:52.218Z,55.13
2017-06-08T13:30:52.177Z,55.04
2017-06-08T13:40:52.135Z,55.08
2017-06-08T13:50:52.209Z,55.81
2017-06-08T14:00:52.157Z,55.35
2017-06-08T14:10:52.207Z,55.74
2017-06-08T14:20:52.174Z,54.38
2017-06-08T14:30:52.164Z,54.99
2017-06-08T14:40:52.189Z,55.54
2017-06-08T14:50:52.161Z,56.81
2017-06-08T15:00:52.210Z,57.65
2017-06-08T15:10:52.169Z,55.52
2017-06-08T15:20:52.257Z,56.71
2017-06-08T15:30:52.221Z,56.85
2017-06-08T15:40:52.164Z,55.81
2017-06-08T15:50:52.177Z,56.97
2017-06-08T16:00:52.154Z,58.11
2017-06-08T16:10:52.280Z,56.59
2017-06-08T16:20:52.590Z,56
2017-06-08T16:30:52.233Z,57.17
2017-06-08T16:40:52.285Z,59.75
2017-06-08T16:50:52.273Z,59.46
2017-06-08T17:00:52.180Z,57.14
2017-06-08T17:10:52.203Z,57.84
2017-06-08T17:20:52.241Z,57.84
2017-06-08T17:30:52.196Z,58.84
2017-06-08T17:40:52.561Z,59.1
2017-06-08T17:50:52.241Z,59.97
2017-06-08T18:00:52.197Z,60.33
2017-06-08T18:10:52.278Z,61.98
2017-06-08T18:20:52.234Z,63.79
2017-06-08T18:30:52.276Z,65.66
2017-06-08T18:40:53.097Z,66.69
2017-06-08T18:50:52.205Z,68.82
2017-06-08T19:10:52.248Z,72.13
2017-06-08T19:20:56.150Z,75.67
2017-06-08T19:30:52.257Z,78.42
2017-06-08T19:40:52.340Z,81.04
2017-06-08T19:50:52.425Z,83.12
2017-06-08T20:00:52.252Z,87.32
2017-06-08T20:10:52.379Z,91.03
2017-06-08T20:20:52.857Z,94.35
2017-06-08T20:30:52.332Z,98.82
2017-06-08T20:40:52.781Z,99.99
2017-06-08T20:50:52.557Z,99.99
2017-06-08T21:00:52.590Z,99.99
2017-06-08T21:10:52.278Z,99.99
2017-06-08T21:20:52.321Z,99.99
2017-06-08T21:30:52.256Z,99.99
2017-06-08T21:40:52.546Z,99.99
2017-06-08T21:50:53.879Z,99.99
2017-06-08T22:00:52.233Z,99.99
2017-06-08T22:10:52.377Z,99.99
2017-06-08T22:20:52.307Z,99.99
2017-06-08T22:30:52.206Z,99.99
2017-06-08T22:40:52.279Z,99.99
2017-06-08T22:50:52.259Z,99.99
2017-06-08T23:00:52.230Z,99.99
2017-06-08T23:10:52.275Z,99.99
2017-06-08T23:20:52.297Z,99.99
2017-06-08T23:30:52.281Z,99.99
2017-06-08T23:40:52.244Z,99.99
2017-06-08T23:50:52.212Z,99.99
